sensor_id;sensor_type;location;lat;lon;timestamp;P1;durP1;ratioP1;P2;durP2;ratioP2
75289;SDS011;63883;48.996;20.804;2023-01-01T00:01:58;152.75;;;54.35;;
75289;SDS011;63883;48.996;20.804;2023-01-01T00:04:24;128.35;;;43.85;;
75289;SDS011;63883;48.996;20.804;2023-01-01T00:06:50;108.00;;;41.70;;
75289;SDS011;63883;48.996;20.804;2023-01-01T00:09:16;88.53;;;36.70;;
75289;SDS011;63883;48.996;20.804;2023-01-01T00:12:00;87.50;;;33.35;;
75289;SDS011;63883;48.996;20.804;2023-01-01T00:14:26;71.20;;;30.17;;
75289;SDS011;63883;48.996;20.804;2023-01-01T00:16:55;96.32;;;35.90;;
75289;SDS011;63883;48.996;20.804;2023-01-01T00:19:21;73.85;;;29.83;;
75289;SDS011;63883;48.996;20.804;2023-01-01T00:21:47;81.97;;;26.05;;
75289;SDS011;63883;48.996;20.804;2023-01-01T00:24:13;73.95;;;24.90;;
75289;SDS011;63883;48.996;20.804;2023-01-01T00:26:38;53.42;;;23.70;;
75289;SDS011;63883;48.996;20.804;2023-01-01T00:29:04;165.45;;;53.85;;
75289;SDS011;63883;48.996;20.804;2023-01-01T00:31:30;134.43;;;44.75;;
75289;SDS011;63883;48.996;20.804;2023-01-01T00:33:56;91.00;;;36.78;;
75289;SDS011;63883;48.996;20.804;2023-01-01T00:36:23;98.28;;;37.08;;
75289;SDS011;63883;48.996;20.804;2023-01-01T00:38:51;154.30;;;60.05;;
75289;SDS011;63883;48.996;20.804;2023-01-01T00:41:17;75.30;;;28.52;;
75289;SDS011;63883;48.996;20.804;2023-01-01T00:43:43;61.88;;;25.83;;
75289;SDS011;63883;48.996;20.804;2023-01-01T00:46:09;79.47;;;26.13;;
75289;SDS011;63883;48.996;20.804;2023-01-01T00:48:35;64.05;;;25.00;;
75289;SDS011;63883;48.996;20.804;2023-01-01T00:51:01;56.33;;;24.25;;
75289;SDS011;63883;48.996;20.804;2023-01-01T00:53:28;62.42;;;24.30;;
75289;SDS011;63883;48.996;20.804;2023-01-01T00:55:53;53.67;;;22.90;;
75289;SDS011;63883;48.996;20.804;2023-01-01T00:58:21;53.28;;;23.67;;
75289;SDS011;63883;48.996;20.804;2023-01-01T01:00:49;50.90;;;22.55;;
75289;SDS011;63883;48.996;20.804;2023-01-01T01:03:16;93.63;;;37.85;;
75289;SDS011;63883;48.996;20.804;2023-01-01T01:11:02;51.70;;;22.73;;
75289;SDS011;63883;48.996;20.804;2023-01-01T01:13:34;67.63;;;27.92;;
75289;SDS011;63883;48.996;20.804;2023-01-01T01:16:00;75.82;;;28.73;;
75289;SDS011;63883;48.996;20.804;2023-01-01T01:18:31;47.53;;;21.63;;
75289;SDS011;63883;48.996;20.804;2023-01-01T01:20:57;73.53;;;26.55;;
75289;SDS011;63883;48.996;20.804;2023-01-01T01:23:23;75.18;;;27.40;;
75289;SDS011;63883;48.996;20.804;2023-01-01T01:25:48;76.95;;;31.35;;
75289;SDS011;63883;48.996;20.804;2023-01-01T01:28:14;79.10;;;29.90;;
75289;SDS011;63883;48.996;20.804;2023-01-01T01:30:40;72.75;;;28.60;;
75289;SDS011;63883;48.996;20.804;2023-01-01T01:33:06;63.58;;;24.70;;
75289;SDS011;63883;48.996;20.804;2023-01-01T01:35:31;58.30;;;24.15;;
75289;SDS011;63883;48.996;20.804;2023-01-01T01:37:58;61.13;;;23.60;;
75289;SDS011;63883;48.996;20.804;2023-01-01T01:40:24;53.20;;;24.98;;
75289;SDS011;63883;48.996;20.804;2023-01-01T01:42:50;53.75;;;23.42;;
75289;SDS011;63883;48.996;20.804;2023-01-01T01:45:16;52.00;;;23.67;;
75289;SDS011;63883;48.996;20.804;2023-01-01T01:47:53;71.93;;;24.80;;
75289;SDS011;63883;48.996;20.804;2023-01-01T01:50:36;59.30;;;24.83;;
75289;SDS011;63883;48.996;20.804;2023-01-01T01:53:07;54.33;;;24.45;;
75289;SDS011;63883;48.996;20.804;2023-01-01T01:55:49;81.82;;;26.67;;
75289;SDS011;63883;48.996;20.804;2023-01-01T01:58:18;51.22;;;23.30;;
75289;SDS011;63883;48.996;20.804;2023-01-01T02:00:43;67.13;;;23.52;;
75289;SDS011;63883;48.996;20.804;2023-01-01T02:03:19;55.55;;;22.75;;
75289;SDS011;63883;48.996;20.804;2023-01-01T02:05:49;53.22;;;21.58;;
75289;SDS011;63883;48.996;20.804;2023-01-01T02:08:16;54.72;;;22.70;;
75289;SDS011;63883;48.996;20.804;2023-01-01T02:10:43;49.40;;;20.17;;
75289;SDS011;63883;48.996;20.804;2023-01-01T02:13:09;53.17;;;20.88;;
75289;SDS011;63883;48.996;20.804;2023-01-01T02:15:39;54.63;;;20.45;;
75289;SDS011;63883;48.996;20.804;2023-01-01T02:18:13;49.47;;;21.25;;
75289;SDS011;63883;48.996;20.804;2023-01-01T02:20:53;65.30;;;21.35;;
75289;SDS011;63883;48.996;20.804;2023-01-01T02:31:42;41.42;;;19.45;;
75289;SDS011;63883;48.996;20.804;2023-01-01T02:34:13;45.92;;;19.90;;
75289;SDS011;63883;48.996;20.804;2023-01-01T02:36:42;64.43;;;21.13;;
75289;SDS011;63883;48.996;20.804;2023-01-01T02:39:13;43.85;;;19.42;;
75289;SDS011;63883;48.996;20.804;2023-01-01T02:41:42;50.75;;;19.63;;
75289;SDS011;63883;48.996;20.804;2023-01-01T02:44:11;43.45;;;19.02;;
75289;SDS011;63883;48.996;20.804;2023-01-01T02:46:37;41.42;;;18.30;;
75289;SDS011;63883;48.996;20.804;2023-01-01T02:49:03;43.35;;;16.90;;
75289;SDS011;63883;48.996;20.804;2023-01-01T03:00:06;36.25;;;17.15;;
75289;SDS011;63883;48.996;20.804;2023-01-01T03:12:00;30.48;;;14.40;;
75289;SDS011;63883;48.996;20.804;2023-01-01T03:14:42;29.85;;;14.32;;
75289;SDS011;63883;48.996;20.804;2023-01-01T03:20:23;36.25;;;15.98;;
75289;SDS011;63883;48.996;20.804;2023-01-01T03:22:53;32.33;;;14.70;;
75289;SDS011;63883;48.996;20.804;2023-01-01T03:25:24;40.15;;;17.73;;
75289;SDS011;63883;48.996;20.804;2023-01-01T03:28:13;46.08;;;16.60;;
75289;SDS011;63883;48.996;20.804;2023-01-01T03:30:52;36.28;;;16.63;;
75289;SDS011;63883;48.996;20.804;2023-01-01T03:33:22;35.25;;;15.23;;
75289;SDS011;63883;48.996;20.804;2023-01-01T03:35:58;33.47;;;14.52;;
75289;SDS011;63883;48.996;20.804;2023-01-01T03:38:35;40.45;;;14.27;;
75289;SDS011;63883;48.996;20.804;2023-01-01T03:41:03;40.38;;;15.02;;
75289;SDS011;63883;48.996;20.804;2023-01-01T03:43:45;42.83;;;16.95;;
75289;SDS011;63883;48.996;20.804;2023-01-01T03:46:18;36.58;;;17.13;;
75289;SDS011;63883;48.996;20.804;2023-01-01T03:48:48;31.77;;;15.48;;
75289;SDS011;63883;48.996;20.804;2023-01-01T03:57:12;30.00;;;14.20;;
75289;SDS011;63883;48.996;20.804;2023-01-01T04:02:10;43.17;;;14.32;;
75289;SDS011;63883;48.996;20.804;2023-01-01T04:04:41;32.72;;;14.30;;
75289;SDS011;63883;48.996;20.804;2023-01-01T04:07:07;32.92;;;14.00;;
75289;SDS011;63883;48.996;20.804;2023-01-01T04:09:33;30.88;;;13.93;;
75289;SDS011;63883;48.996;20.804;2023-01-01T04:12:01;30.60;;;14.65;;
75289;SDS011;63883;48.996;20.804;2023-01-01T04:17:00;27.17;;;13.20;;
75289;SDS011;63883;48.996;20.804;2023-01-01T04:19:28;25.38;;;12.68;;
75289;SDS011;63883;48.996;20.804;2023-01-01T04:21:53;24.33;;;13.00;;
75289;SDS011;63883;48.996;20.804;2023-01-01T04:24:19;25.52;;;12.88;;
75289;SDS011;63883;48.996;20.804;2023-01-01T04:26:45;27.42;;;13.00;;
75289;SDS011;63883;48.996;20.804;2023-01-01T04:29:11;24.85;;;12.77;;
75289;SDS011;63883;48.996;20.804;2023-01-01T04:31:36;25.92;;;13.35;;
75289;SDS011;63883;48.996;20.804;2023-01-01T04:34:02;24.67;;;12.65;;
75289;SDS011;63883;48.996;20.804;2023-01-01T04:36:28;24.50;;;12.40;;
75289;SDS011;63883;48.996;20.804;2023-01-01T04:38:54;29.98;;;13.48;;
75289;SDS011;63883;48.996;20.804;2023-01-01T04:41:19;26.15;;;12.82;;
75289;SDS011;63883;48.996;20.804;2023-01-01T04:43:46;27.30;;;14.15;;
75289;SDS011;63883;48.996;20.804;2023-01-01T04:46:14;30.58;;;13.00;;
75289;SDS011;63883;48.996;20.804;2023-01-01T04:48:41;28.52;;;12.50;;
75289;SDS011;63883;48.996;20.804;2023-01-01T04:51:08;31.40;;;12.30;;
75289;SDS011;63883;48.996;20.804;2023-01-01T04:53:35;28.13;;;11.55;;
75289;SDS011;63883;48.996;20.804;2023-01-01T04:56:02;27.23;;;12.40;;
75289;SDS011;63883;48.996;20.804;2023-01-01T04:58:32;22.88;;;12.25;;
75289;SDS011;63883;48.996;20.804;2023-01-01T05:00:59;21.90;;;11.55;;
75289;SDS011;63883;48.996;20.804;2023-01-01T05:03:25;23.58;;;11.43;;
75289;SDS011;63883;48.996;20.804;2023-01-01T05:05:59;22.50;;;12.27;;
75289;SDS011;63883;48.996;20.804;2023-01-01T05:08:26;22.75;;;12.18;;
75289;SDS011;63883;48.996;20.804;2023-01-01T05:11:00;21.73;;;11.60;;
75289;SDS011;63883;48.996;20.804;2023-01-01T05:13:26;23.48;;;11.43;;
75289;SDS011;63883;48.996;20.804;2023-01-01T05:15:52;22.38;;;12.05;;
75289;SDS011;63883;48.996;20.804;2023-01-01T05:18:17;22.10;;;11.07;;
75289;SDS011;63883;48.996;20.804;2023-01-01T05:20:43;20.45;;;11.35;;
75289;SDS011;63883;48.996;20.804;2023-01-01T05:23:09;20.33;;;10.75;;
75289;SDS011;63883;48.996;20.804;2023-01-01T05:25:34;18.20;;;10.05;;
75289;SDS011;63883;48.996;20.804;2023-01-01T05:28:00;22.73;;;11.00;;
75289;SDS011;63883;48.996;20.804;2023-01-01T05:30:26;21.58;;;10.77;;
75289;SDS011;63883;48.996;20.804;2023-01-01T05:32:52;25.23;;;10.57;;
75289;SDS011;63883;48.996;20.804;2023-01-01T05:35:17;19.30;;;10.20;;
75289;SDS011;63883;48.996;20.804;2023-01-01T05:37:43;23.98;;;10.68;;
75289;SDS011;63883;48.996;20.804;2023-01-01T05:40:09;23.80;;;11.63;;
75289;SDS011;63883;48.996;20.804;2023-01-01T05:42:35;25.52;;;11.07;;
75289;SDS011;63883;48.996;20.804;2023-01-01T05:45:01;38.70;;;11.07;;
75289;SDS011;63883;48.996;20.804;2023-01-01T05:47:28;27.02;;;9.85;;
75289;SDS011;63883;48.996;20.804;2023-01-01T05:49:53;26.35;;;11.25;;
75289;SDS011;63883;48.996;20.804;2023-01-01T05:52:19;27.35;;;11.82;;
75289;SDS011;63883;48.996;20.804;2023-01-01T05:54:45;33.38;;;12.23;;
75289;SDS011;63883;48.996;20.804;2023-01-01T05:57:10;26.23;;;12.65;;
75289;SDS011;63883;48.996;20.804;2023-01-01T05:59:36;31.15;;;12.90;;
75289;SDS011;63883;48.996;20.804;2023-01-01T06:02:02;28.33;;;11.55;;
75289;SDS011;63883;48.996;20.804;2023-01-01T06:04:27;36.78;;;14.95;;
75289;SDS011;63883;48.996;20.804;2023-01-01T06:06:54;43.58;;;17.92;;
75289;SDS011;63883;48.996;20.804;2023-01-01T06:09:19;54.22;;;19.95;;
75289;SDS011;63883;48.996;20.804;2023-01-01T06:11:45;39.50;;;16.65;;
75289;SDS011;63883;48.996;20.804;2023-01-01T06:14:10;25.88;;;12.52;;
75289;SDS011;63883;48.996;20.804;2023-01-01T06:16:36;31.55;;;13.52;;
75289;SDS011;63883;48.996;20.804;2023-01-01T06:19:02;28.10;;;14.25;;
75289;SDS011;63883;48.996;20.804;2023-01-01T06:21:28;23.13;;;12.13;;
75289;SDS011;63883;48.996;20.804;2023-01-01T06:23:54;22.45;;;11.93;;
75289;SDS011;63883;48.996;20.804;2023-01-01T06:26:25;18.55;;;9.32;;
75289;SDS011;63883;48.996;20.804;2023-01-01T06:28:53;22.88;;;9.02;;
75289;SDS011;63883;48.996;20.804;2023-01-01T06:31:20;20.25;;;10.77;;
75289;SDS011;63883;48.996;20.804;2023-01-01T06:33:48;18.67;;;10.13;;
75289;SDS011;63883;48.996;20.804;2023-01-01T06:36:18;25.90;;;11.07;;
75289;SDS011;63883;48.996;20.804;2023-01-01T06:38:46;22.92;;;10.38;;
75289;SDS011;63883;48.996;20.804;2023-01-01T06:41:14;23.10;;;11.80;;
75289;SDS011;63883;48.996;20.804;2023-01-01T06:43:42;27.33;;;11.88;;
75289;SDS011;63883;48.996;20.804;2023-01-01T06:46:15;24.75;;;10.80;;
75289;SDS011;63883;48.996;20.804;2023-01-01T06:48:41;25.80;;;13.05;;
75289;SDS011;63883;48.996;20.804;2023-01-01T06:51:12;35.67;;;16.98;;
75289;SDS011;63883;48.996;20.804;2023-01-01T06:53:39;28.05;;;15.13;;
75289;SDS011;63883;48.996;20.804;2023-01-01T06:56:05;29.20;;;12.70;;
75289;SDS011;63883;48.996;20.804;2023-01-01T06:58:31;19.58;;;10.95;;
75289;SDS011;63883;48.996;20.804;2023-01-01T07:01:32;23.05;;;12.75;;
75289;SDS011;63883;48.996;20.804;2023-01-01T07:04:01;26.55;;;15.00;;
75289;SDS011;63883;48.996;20.804;2023-01-01T07:06:29;24.42;;;13.32;;
75289;SDS011;63883;48.996;20.804;2023-01-01T07:08:56;25.02;;;13.50;;
75289;SDS011;63883;48.996;20.804;2023-01-01T07:11:22;20.60;;;12.32;;
75289;SDS011;63883;48.996;20.804;2023-01-01T07:13:48;28.67;;;13.90;;
75289;SDS011;63883;48.996;20.804;2023-01-01T07:16:14;26.02;;;13.55;;
75289;SDS011;63883;48.996;20.804;2023-01-01T07:18:40;33.53;;;17.52;;
75289;SDS011;63883;48.996;20.804;2023-01-01T07:21:20;34.05;;;15.68;;
75289;SDS011;63883;48.996;20.804;2023-01-01T07:23:58;21.35;;;10.95;;
75289;SDS011;63883;48.996;20.804;2023-01-01T07:28:53;25.33;;;14.25;;
75289;SDS011;63883;48.996;20.804;2023-01-01T07:31:19;22.88;;;13.05;;
75289;SDS011;63883;48.996;20.804;2023-01-01T07:33:44;23.85;;;14.05;;
75289;SDS011;63883;48.996;20.804;2023-01-01T07:36:10;23.63;;;12.85;;
75289;SDS011;63883;48.996;20.804;2023-01-01T07:38:36;21.15;;;12.45;;
75289;SDS011;63883;48.996;20.804;2023-01-01T07:41:02;19.65;;;11.77;;
75289;SDS011;63883;48.996;20.804;2023-01-01T07:43:27;20.63;;;11.68;;
75289;SDS011;63883;48.996;20.804;2023-01-01T07:45:53;19.30;;;10.70;;
75289;SDS011;63883;48.996;20.804;2023-01-01T07:48:19;19.10;;;10.50;;
75289;SDS011;63883;48.996;20.804;2023-01-01T07:50:45;17.38;;;10.57;;
75289;SDS011;63883;48.996;20.804;2023-01-01T07:53:10;17.42;;;9.45;;
75289;SDS011;63883;48.996;20.804;2023-01-01T07:55:36;17.40;;;9.70;;
75289;SDS011;63883;48.996;20.804;2023-01-01T07:58:02;18.58;;;10.95;;
75289;SDS011;63883;48.996;20.804;2023-01-01T08:00:28;18.10;;;10.30;;
75289;SDS011;63883;48.996;20.804;2023-01-01T08:02:54;16.70;;;9.48;;
75289;SDS011;63883;48.996;20.804;2023-01-01T08:05:20;16.70;;;9.15;;
75289;SDS011;63883;48.996;20.804;2023-01-01T08:07:46;15.27;;;8.93;;
75289;SDS011;63883;48.996;20.804;2023-01-01T08:10:13;14.82;;;8.73;;
75289;SDS011;63883;48.996;20.804;2023-01-01T08:12:40;16.30;;;9.70;;
75289;SDS011;63883;48.996;20.804;2023-01-01T08:15:07;15.18;;;9.10;;
75289;SDS011;63883;48.996;20.804;2023-01-01T08:17:33;15.65;;;9.32;;
75289;SDS011;63883;48.996;20.804;2023-01-01T08:19:59;13.23;;;8.55;;
75289;SDS011;63883;48.996;20.804;2023-01-01T08:22:25;14.18;;;9.02;;
75289;SDS011;63883;48.996;20.804;2023-01-01T08:24:51;13.90;;;8.75;;
75289;SDS011;63883;48.996;20.804;2023-01-01T08:27:16;14.00;;;7.97;;
75289;SDS011;63883;48.996;20.804;2023-01-01T08:29:43;11.38;;;7.20;;
75289;SDS011;63883;48.996;20.804;2023-01-01T08:32:09;10.90;;;6.68;;
75289;SDS011;63883;48.996;20.804;2023-01-01T08:34:38;11.60;;;7.10;;
75289;SDS011;63883;48.996;20.804;2023-01-01T08:37:04;11.30;;;7.35;;
75289;SDS011;63883;48.996;20.804;2023-01-01T08:39:30;15.25;;;10.52;;
75289;SDS011;63883;48.996;20.804;2023-01-01T08:41:56;17.17;;;11.02;;
75289;SDS011;63883;48.996;20.804;2023-01-01T08:44:22;17.50;;;10.60;;
75289;SDS011;63883;48.996;20.804;2023-01-01T08:46:48;16.30;;;10.32;;
75289;SDS011;63883;48.996;20.804;2023-01-01T08:49:16;17.15;;;10.30;;
75289;SDS011;63883;48.996;20.804;2023-01-01T08:51:42;16.83;;;10.23;;
75289;SDS011;63883;48.996;20.804;2023-01-01T08:54:08;15.73;;;9.30;;
75289;SDS011;63883;48.996;20.804;2023-01-01T08:56:33;14.45;;;8.63;;
75289;SDS011;63883;48.996;20.804;2023-01-01T08:58:59;12.82;;;7.78;;
75289;SDS011;63883;48.996;20.804;2023-01-01T09:01:25;12.77;;;8.15;;
75289;SDS011;63883;48.996;20.804;2023-01-01T09:03:52;12.73;;;8.77;;
75289;SDS011;63883;48.996;20.804;2023-01-01T09:06:18;15.70;;;8.23;;
75289;SDS011;63883;48.996;20.804;2023-01-01T09:08:44;13.25;;;8.15;;
75289;SDS011;63883;48.996;20.804;2023-01-01T09:11:21;15.02;;;8.82;;
75289;SDS011;63883;48.996;20.804;2023-01-01T09:13:49;13.75;;;7.50;;
75289;SDS011;63883;48.996;20.804;2023-01-01T09:16:14;14.63;;;8.13;;
75289;SDS011;63883;48.996;20.804;2023-01-01T09:18:40;13.80;;;7.53;;
75289;SDS011;63883;48.996;20.804;2023-01-01T09:21:06;13.40;;;7.75;;
75289;SDS011;63883;48.996;20.804;2023-01-01T09:23:32;14.23;;;7.72;;
75289;SDS011;63883;48.996;20.804;2023-01-01T09:26:15;11.98;;;6.90;;
75289;SDS011;63883;48.996;20.804;2023-01-01T09:28:41;14.57;;;8.75;;
75289;SDS011;63883;48.996;20.804;2023-01-01T09:31:07;15.45;;;8.15;;
75289;SDS011;63883;48.996;20.804;2023-01-01T09:33:33;14.50;;;7.82;;
75289;SDS011;63883;48.996;20.804;2023-01-01T09:36:23;15.10;;;8.13;;
75289;SDS011;63883;48.996;20.804;2023-01-01T09:38:53;13.00;;;7.95;;
75289;SDS011;63883;48.996;20.804;2023-01-01T09:41:31;15.05;;;7.35;;
75289;SDS011;63883;48.996;20.804;2023-01-01T09:46:39;16.85;;;8.60;;
75289;SDS011;63883;48.996;20.804;2023-01-01T09:49:15;23.17;;;11.95;;
75289;SDS011;63883;48.996;20.804;2023-01-01T09:51:50;19.50;;;10.73;;
75289;SDS011;63883;48.996;20.804;2023-01-01T09:56:52;15.27;;;7.72;;
75289;SDS011;63883;48.996;20.804;2023-01-01T09:59:21;14.43;;;7.68;;
75289;SDS011;63883;48.996;20.804;2023-01-01T10:15:20;12.25;;;7.35;;
75289;SDS011;63883;48.996;20.804;2023-01-01T10:23:14;14.73;;;7.82;;
75289;SDS011;63883;48.996;20.804;2023-01-01T10:25:44;14.40;;;8.02;;
75289;SDS011;63883;48.996;20.804;2023-01-01T10:28:12;16.13;;;8.25;;
75289;SDS011;63883;48.996;20.804;2023-01-01T10:30:41;17.13;;;8.02;;
75289;SDS011;63883;48.996;20.804;2023-01-01T10:33:14;18.42;;;9.45;;
75289;SDS011;63883;48.996;20.804;2023-01-01T10:35:44;20.92;;;9.55;;
75289;SDS011;63883;48.996;20.804;2023-01-01T10:38:23;21.20;;;10.52;;
75289;SDS011;63883;48.996;20.804;2023-01-01T10:40:50;24.05;;;12.32;;
75289;SDS011;63883;48.996;20.804;2023-01-01T10:43:19;18.15;;;9.88;;
75289;SDS011;63883;48.996;20.804;2023-01-01T10:45:54;15.00;;;7.88;;
75289;SDS011;63883;48.996;20.804;2023-01-01T10:48:24;14.27;;;8.32;;
75289;SDS011;63883;48.996;20.804;2023-01-01T10:51:00;13.45;;;8.75;;
75289;SDS011;63883;48.996;20.804;2023-01-01T10:53:35;17.25;;;9.48;;
75289;SDS011;63883;48.996;20.804;2023-01-01T10:56:05;15.73;;;9.23;;
75289;SDS011;63883;48.996;20.804;2023-01-01T11:01:02;15.88;;;9.07;;
75289;SDS011;63883;48.996;20.804;2023-01-01T11:03:30;16.65;;;8.80;;
75289;SDS011;63883;48.996;20.804;2023-01-01T11:08:27;17.75;;;9.15;;
75289;SDS011;63883;48.996;20.804;2023-01-01T11:10:56;23.67;;;12.70;;
75289;SDS011;63883;48.996;20.804;2023-01-01T11:13:23;20.40;;;10.60;;
75289;SDS011;63883;48.996;20.804;2023-01-01T11:15:50;18.13;;;9.60;;
75289;SDS011;63883;48.996;20.804;2023-01-01T11:18:26;15.93;;;9.15;;
75289;SDS011;63883;48.996;20.804;2023-01-01T11:21:00;16.00;;;8.60;;
75289;SDS011;63883;48.996;20.804;2023-01-01T11:23:29;17.73;;;10.00;;
75289;SDS011;63883;48.996;20.804;2023-01-01T11:28:57;16.45;;;8.93;;
75289;SDS011;63883;48.996;20.804;2023-01-01T11:31:33;15.32;;;8.38;;
75289;SDS011;63883;48.996;20.804;2023-01-01T11:34:01;26.15;;;10.85;;
75289;SDS011;63883;48.996;20.804;2023-01-01T11:36:29;19.30;;;9.52;;
75289;SDS011;63883;48.996;20.804;2023-01-01T11:41:46;21.77;;;10.90;;
75289;SDS011;63883;48.996;20.804;2023-01-01T11:44:21;34.35;;;14.13;;
75289;SDS011;63883;48.996;20.804;2023-01-01T11:47:01;41.88;;;15.13;;
75289;SDS011;63883;48.996;20.804;2023-01-01T11:49:27;44.05;;;16.65;;
75289;SDS011;63883;48.996;20.804;2023-01-01T11:51:55;36.90;;;15.80;;
75289;SDS011;63883;48.996;20.804;2023-01-01T11:59:52;37.47;;;14.35;;
75289;SDS011;63883;48.996;20.804;2023-01-01T12:02:30;29.83;;;12.55;;
75289;SDS011;63883;48.996;20.804;2023-01-01T12:05:25;22.08;;;10.95;;
75289;SDS011;63883;48.996;20.804;2023-01-01T12:08:02;33.80;;;14.15;;
75289;SDS011;63883;48.996;20.804;2023-01-01T12:10:38;31.73;;;12.98;;
75289;SDS011;63883;48.996;20.804;2023-01-01T12:13:13;24.27;;;12.07;;
75289;SDS011;63883;48.996;20.804;2023-01-01T12:21:44;21.42;;;11.55;;
75289;SDS011;63883;48.996;20.804;2023-01-01T12:23:53;23.25;;;11.95;;
75289;SDS011;63883;48.996;20.804;2023-01-01T12:26:26;25.77;;;12.20;;
75289;SDS011;63883;48.996;20.804;2023-01-01T12:37:03;16.23;;;9.60;;
75289;SDS011;63883;48.996;20.804;2023-01-01T12:50:44;12.00;;;7.53;;
75289;SDS011;63883;48.996;20.804;2023-01-01T12:56:08;18.17;;;8.77;;
75289;SDS011;63883;48.996;20.804;2023-01-01T12:58:42;15.73;;;8.30;;
75289;SDS011;63883;48.996;20.804;2023-01-01T13:01:19;15.77;;;8.63;;
75289;SDS011;63883;48.996;20.804;2023-01-01T13:06:18;15.70;;;9.10;;
75289;SDS011;63883;48.996;20.804;2023-01-01T13:08:49;16.83;;;9.30;;
75289;SDS011;63883;48.996;20.804;2023-01-01T13:11:20;14.48;;;8.63;;
75289;SDS011;63883;48.996;20.804;2023-01-01T13:13:49;17.13;;;9.32;;
75289;SDS011;63883;48.996;20.804;2023-01-01T13:16:30;18.38;;;10.05;;
75289;SDS011;63883;48.996;20.804;2023-01-01T13:18:58;16.95;;;9.48;;
75289;SDS011;63883;48.996;20.804;2023-01-01T13:21:24;17.45;;;9.18;;
75289;SDS011;63883;48.996;20.804;2023-01-01T13:23:52;15.80;;;8.95;;
75289;SDS011;63883;48.996;20.804;2023-01-01T13:45:03;22.38;;;14.63;;
75289;SDS011;63883;48.996;20.804;2023-01-01T13:47:41;15.43;;;9.57;;
75289;SDS011;63883;48.996;20.804;2023-01-01T13:50:19;21.95;;;13.13;;
75289;SDS011;63883;48.996;20.804;2023-01-01T13:53:09;35.13;;;20.65;;
75289;SDS011;63883;48.996;20.804;2023-01-01T14:04:00;29.20;;;14.00;;
75289;SDS011;63883;48.996;20.804;2023-01-01T14:06:33;30.65;;;17.98;;
75289;SDS011;63883;48.996;20.804;2023-01-01T14:09:10;27.30;;;14.60;;
75289;SDS011;63883;48.996;20.804;2023-01-01T14:11:38;18.85;;;10.70;;
75289;SDS011;63883;48.996;20.804;2023-01-01T14:14:25;19.15;;;10.65;;
75289;SDS011;63883;48.996;20.804;2023-01-01T14:16:53;19.80;;;10.95;;
75289;SDS011;63883;48.996;20.804;2023-01-01T14:19:22;21.70;;;11.30;;
75289;SDS011;63883;48.996;20.804;2023-01-01T14:21:49;24.65;;;12.85;;
75289;SDS011;63883;48.996;20.804;2023-01-01T14:24:17;32.30;;;15.35;;
75289;SDS011;63883;48.996;20.804;2023-01-01T14:26:43;74.43;;;27.20;;
75289;SDS011;63883;48.996;20.804;2023-01-01T14:29:14;51.55;;;21.38;;
75289;SDS011;63883;48.996;20.804;2023-01-01T14:31:44;39.63;;;18.20;;
75289;SDS011;63883;48.996;20.804;2023-01-01T14:36:53;34.88;;;15.32;;
75289;SDS011;63883;48.996;20.804;2023-01-01T14:39:26;146.60;;;33.78;;
75289;SDS011;63883;48.996;20.804;2023-01-01T14:41:54;154.48;;;35.75;;
75289;SDS011;63883;48.996;20.804;2023-01-01T14:44:26;115.20;;;29.75;;
75289;SDS011;63883;48.996;20.804;2023-01-01T14:46:58;134.90;;;35.20;;
75289;SDS011;63883;48.996;20.804;2023-01-01T14:49:29;179.48;;;44.15;;
75289;SDS011;63883;48.996;20.804;2023-01-01T14:52:02;101.75;;;32.55;;
75289;SDS011;63883;48.996;20.804;2023-01-01T14:54:37;78.13;;;27.17;;
75289;SDS011;63883;48.996;20.804;2023-01-01T14:57:15;44.97;;;20.23;;
75289;SDS011;63883;48.996;20.804;2023-01-01T14:59:49;32.40;;;14.55;;
75289;SDS011;63883;48.996;20.804;2023-01-01T15:02:27;35.92;;;14.80;;
75289;SDS011;63883;48.996;20.804;2023-01-01T15:04:57;61.92;;;17.55;;
75289;SDS011;63883;48.996;20.804;2023-01-01T15:07:39;40.20;;;16.17;;
75289;SDS011;63883;48.996;20.804;2023-01-01T15:10:05;55.80;;;15.25;;
75289;SDS011;63883;48.996;20.804;2023-01-01T15:12:36;32.10;;;15.35;;
75289;SDS011;63883;48.996;20.804;2023-01-01T15:15:03;36.58;;;17.67;;
75289;SDS011;63883;48.996;20.804;2023-01-01T15:17:30;56.17;;;22.20;;
75289;SDS011;63883;48.996;20.804;2023-01-01T15:20:19;37.80;;;19.25;;
75289;SDS011;63883;48.996;20.804;2023-01-01T15:22:47;43.10;;;16.67;;
75289;SDS011;63883;48.996;20.804;2023-01-01T15:25:15;32.75;;;16.35;;
75289;SDS011;63883;48.996;20.804;2023-01-01T15:27:46;31.38;;;15.68;;
75289;SDS011;63883;48.996;20.804;2023-01-01T15:30:21;35.30;;;16.88;;
75289;SDS011;63883;48.996;20.804;2023-01-01T15:32:47;31.45;;;11.20;;
75289;SDS011;63883;48.996;20.804;2023-01-01T15:35:20;20.65;;;11.32;;
75289;SDS011;63883;48.996;20.804;2023-01-01T15:37:53;23.50;;;11.05;;
75289;SDS011;63883;48.996;20.804;2023-01-01T15:47:51;26.80;;;11.93;;
75289;SDS011;63883;48.996;20.804;2023-01-01T15:52:46;52.90;;;18.13;;
75289;SDS011;63883;48.996;20.804;2023-01-01T15:55:15;54.58;;;15.13;;
75289;SDS011;63883;48.996;20.804;2023-01-01T15:57:48;34.53;;;15.63;;
75289;SDS011;63883;48.996;20.804;2023-01-01T16:00:23;32.95;;;16.00;;
75289;SDS011;63883;48.996;20.804;2023-01-01T16:02:54;54.03;;;15.82;;
75289;SDS011;63883;48.996;20.804;2023-01-01T16:05:25;104.47;;;25.65;;
75289;SDS011;63883;48.996;20.804;2023-01-01T16:08:01;155.73;;;33.45;;
75289;SDS011;63883;48.996;20.804;2023-01-01T16:10:28;231.45;;;44.45;;
75289;SDS011;63883;48.996;20.804;2023-01-01T16:12:56;173.05;;;38.35;;
75289;SDS011;63883;48.996;20.804;2023-01-01T16:15:23;171.57;;;39.08;;
75289;SDS011;63883;48.996;20.804;2023-01-01T16:17:49;35.88;;;14.40;;
75289;SDS011;63883;48.996;20.804;2023-01-01T16:20:16;44.25;;;17.30;;
75289;SDS011;63883;48.996;20.804;2023-01-01T16:22:43;39.47;;;17.23;;
75289;SDS011;63883;48.996;20.804;2023-01-01T16:27:39;28.30;;;13.43;;
75289;SDS011;63883;48.996;20.804;2023-01-01T16:30:06;85.30;;;26.88;;
75289;SDS011;63883;48.996;20.804;2023-01-01T16:32:31;79.70;;;26.95;;
75289;SDS011;63883;48.996;20.804;2023-01-01T16:34:57;71.95;;;28.40;;
75289;SDS011;63883;48.996;20.804;2023-01-01T16:37:23;80.63;;;30.80;;
75289;SDS011;63883;48.996;20.804;2023-01-01T16:39:49;49.58;;;21.65;;
75289;SDS011;63883;48.996;20.804;2023-01-01T16:42:14;34.85;;;16.60;;
75289;SDS011;63883;48.996;20.804;2023-01-01T16:44:40;32.60;;;15.00;;
75289;SDS011;63883;48.996;20.804;2023-01-01T16:47:06;67.95;;;26.40;;
75289;SDS011;63883;48.996;20.804;2023-01-01T16:49:32;48.72;;;20.75;;
75289;SDS011;63883;48.996;20.804;2023-01-01T16:51:58;45.35;;;20.95;;
75289;SDS011;63883;48.996;20.804;2023-01-01T16:54:24;46.20;;;21.52;;
75289;SDS011;63883;48.996;20.804;2023-01-01T16:56:49;56.40;;;22.85;;
75289;SDS011;63883;48.996;20.804;2023-01-01T16:59:15;44.55;;;20.20;;
75289;SDS011;63883;48.996;20.804;2023-01-01T17:01:41;39.50;;;17.75;;
75289;SDS011;63883;48.996;20.804;2023-01-01T17:04:08;34.90;;;17.58;;